createdAt,value
2023-02-22T00:00:11.965Z,302.5069
2023-02-22T00:05:13.734Z,292.4743
2023-02-22T00:10:15.325Z,257.6188
2023-02-22T00:15:17.145Z,253.63505
2023-02-22T00:20:19.023Z,230.8221
2023-02-22T00:25:20.649Z,212.65655
2023-02-22T00:30:22.439Z,184.40325
2023-02-22T00:35:24.078Z,165.44475
2023-02-22T00:40:25.703Z,140.73215
2023-02-22T00:45:27.412Z,126.05215
2023-02-22T00:50:29.038Z,104.40105
2023-02-22T00:55:30.623Z,85.07365
2023-02-22T01:00:32.270Z,67.09255
2023-02-22T01:05:33.872Z,52.41255
2023-02-22T01:10:35.947Z,42.01105
2023-02-22T01:15:37.634Z,27.8844
2023-02-22T01:20:39.253Z,20.72885
2023-02-22T01:25:40.870Z,12.78035
2023-02-22T01:30:42.685Z,5.9937
2023-02-22T01:35:44.453Z,2.50815
2023-02-22T01:40:46.293Z,0.4148
2023-02-22T01:45:48.053Z,0
2023-02-22T01:50:49.698Z,0
2023-02-22T01:55:51.307Z,0
2023-02-22T02:00:53.017Z,0
2023-02-22T02:05:54.591Z,0
2023-02-22T02:10:56.184Z,0
2023-02-22T02:15:58.070Z,0
2023-02-22T02:20:59.682Z,0
2023-02-22T02:26:01.286Z,0
2023-02-22T02:31:03.009Z,0
2023-02-22T02:36:04.618Z,0
2023-02-22T02:41:06.256Z,0
2023-02-22T02:46:07.997Z,0
2023-02-22T02:51:09.613Z,0
2023-02-22T02:56:11.309Z,0
2023-02-22T03:01:13.225Z,0
2023-02-22T03:06:14.867Z,0
2023-02-22T03:11:16.863Z,0
2023-02-22T03:16:18.756Z,0
2023-02-22T03:21:20.454Z,0
2023-02-22T03:26:22.049Z,0
2023-02-22T03:31:24.012Z,0
2023-02-22T03:36:25.643Z,0
2023-02-22T03:41:27.272Z,0
2023-02-22T03:46:29.013Z,0
2023-02-22T03:51:30.736Z,0
2023-02-22T03:56:34.425Z,0
2023-02-22T04:01:36.514Z,0
2023-02-22T04:06:38.159Z,0
2023-02-22T04:11:39.780Z,0
2023-02-22T04:16:41.456Z,0
2023-02-22T04:21:43.078Z,0
2023-02-22T04:26:44.767Z,0
2023-02-22T04:31:46.640Z,0
2023-02-22T04:36:48.268Z,0
2023-02-22T04:41:49.901Z,0
2023-02-22T04:46:51.666Z,0
2023-02-22T04:51:53.293Z,0
2023-02-22T04:56:54.914Z,0
2023-02-22T05:01:56.609Z,0
2023-02-22T05:06:58.289Z,0
2023-02-22T05:11:59.928Z,0
2023-02-22T05:17:01.740Z,0
2023-02-22T05:22:03.443Z,0
2023-02-22T05:27:05.102Z,0
2023-02-22T05:32:06.925Z,0
2023-02-22T05:37:08.639Z,0
2023-02-22T05:42:10.299Z,0
2023-02-22T05:47:12.011Z,0
2023-02-22T05:52:13.601Z,0
2023-02-22T05:57:15.261Z,0
2023-02-22T06:02:17.212Z,0
2023-02-22T06:07:18.995Z,0
2023-02-22T06:12:20.590Z,0
2023-02-22T06:17:22.595Z,0
2023-02-22T06:22:24.207Z,0
2023-02-22T06:27:25.793Z,0
2023-02-22T06:32:27.598Z,0
2023-02-22T06:37:29.364Z,0
2023-02-22T06:42:30.960Z,0
2023-02-22T06:47:32.685Z,0
2023-02-22T06:52:34.289Z,0
2023-02-22T06:57:35.893Z,0
2023-02-22T07:02:37.681Z,0
2023-02-22T07:07:39.322Z,0
2023-02-22T07:12:41.032Z,0
2023-02-22T07:17:42.804Z,0
2023-02-22T07:22:44.431Z,0
2023-02-22T07:27:46.077Z,0
2023-02-22T07:32:47.893Z,0
2023-02-22T07:37:49.572Z,0
2023-02-22T07:42:51.219Z,0
2023-02-22T07:47:52.945Z,0
2023-02-22T07:52:54.580Z,0
2023-02-22T07:57:56.241Z,0
2023-02-22T08:02:58.029Z,0
2023-02-22T08:07:59.656Z,0
2023-02-22T08:13:01.299Z,0
2023-02-22T08:18:03.099Z,0
2023-02-22T08:23:04.700Z,0
2023-02-22T08:28:06.368Z,0
2023-02-22T08:33:08.206Z,0
2023-02-22T08:38:09.905Z,0
2023-02-22T08:43:11.519Z,0
2023-02-22T08:48:13.092Z,0
2023-02-22T08:53:14.708Z,0
2023-02-22T08:58:16.370Z,0
2023-02-22T09:03:18.068Z,0
2023-02-22T09:08:19.890Z,0
2023-02-22T09:13:21.528Z,0
2023-02-22T09:18:23.710Z,0
2023-02-22T09:23:26.086Z,0
2023-02-22T09:28:29.137Z,0
2023-02-22T09:33:30.936Z,0
2023-02-22T09:38:32.613Z,0
2023-02-22T09:43:34.347Z,0
2023-02-22T09:48:36.040Z,0
2023-02-22T09:53:37.764Z,0
2023-02-22T09:58:41.716Z,0
2023-02-22T10:03:43.769Z,0
2023-02-22T10:08:45.567Z,0
2023-02-22T10:13:47.178Z,0
2023-02-22T10:18:48.845Z,0
2023-02-22T10:23:50.422Z,0
2023-02-22T10:28:52.037Z,0
2023-02-22T10:33:53.721Z,0
2023-02-22T10:38:55.351Z,0
2023-02-22T10:43:56.929Z,0
2023-02-22T10:48:58.566Z,0
2023-02-22T10:54:00.262Z,0
2023-02-22T10:59:01.948Z,0
2023-02-22T11:04:03.457Z,0
2023-02-22T11:09:05.042Z,0
2023-02-22T11:14:06.738Z,0
2023-02-22T11:19:08.404Z,0
2023-02-22T11:24:10.255Z,0
2023-02-22T11:29:11.917Z,0
2023-02-22T11:34:13.539Z,0
2023-02-22T11:39:15.176Z,0
2023-02-22T11:44:16.792Z,0
2023-02-22T11:49:18.394Z,0
2023-02-22T11:54:20.267Z,0
2023-02-22T11:59:21.961Z,0
2023-02-22T12:04:23.612Z,0
2023-02-22T12:09:25.214Z,0
2023-02-22T12:14:26.904Z,0
2023-02-22T12:19:28.540Z,0
2023-02-22T12:24:30.177Z,0
2023-02-22T12:29:31.782Z,0
2023-02-22T12:34:33.460Z,0
2023-02-22T12:39:47.094Z,0
2023-02-22T12:44:53.856Z,0
2023-02-22T12:49:55.449Z,0
2023-02-22T12:54:57.092Z,0
2023-02-22T12:59:58.707Z,0
2023-02-22T13:05:00.385Z,0
2023-02-22T13:10:02.056Z,0
2023-02-22T13:15:03.678Z,0
2023-02-22T13:20:05.304Z,0
2023-02-22T13:25:06.898Z,0
2023-02-22T13:30:08.655Z,0
2023-02-22T13:35:10.347Z,0
2023-02-22T13:40:12.048Z,0
2023-02-22T13:45:13.638Z,0
2023-02-22T13:50:15.385Z,0
2023-02-22T13:55:17.066Z,0
2023-02-22T14:00:18.949Z,0
2023-02-22T14:05:21.056Z,0
2023-02-22T14:10:22.740Z,0
2023-02-22T14:15:29.797Z,0
2023-02-22T14:20:32.599Z,0.88715
2023-02-22T14:25:34.388Z,0.4148
2023-02-22T14:30:36.150Z,5.80925
2023-02-22T14:35:49.187Z,5.3852
2023-02-22T14:40:51.873Z,17.79665
2023-02-22T14:45:53.834Z,31.5544
2023-02-22T14:50:55.697Z,47.63585
2023-02-22T14:55:57.272Z,68.7336
2023-02-22T15:00:58.879Z,91.78615
2023-02-22T15:06:00.489Z,113.8613
2023-02-22T15:11:02.081Z,137.28275
2023-02-22T15:16:03.748Z,159.8561
2023-02-22T15:21:06.938Z,190.1935
2023-02-22T15:26:08.733Z,220.5309
2023-02-22T15:31:10.379Z,249.6513
2023-02-22T15:36:12.007Z,278.34765
2023-02-22T15:41:13.621Z,315.04765
2023-02-22T15:46:15.304Z,345.9384
2023-02-22T15:51:17.243Z,389.79395
2023-02-22T15:56:19.030Z,425.64585
2023-02-22T16:01:21.302Z,455.74365
2023-02-22T16:06:23.336Z,483.9418
2023-02-22T16:11:25.002Z,512.1951
2023-02-22T16:16:26.775Z,544.4873
2023-02-22T16:21:28.404Z,565.34545
2023-02-22T16:26:29.998Z,586.38805
2023-02-22T16:31:31.655Z,613.55365
2023-02-22T16:36:33.336Z,642.43445
2023-02-22T16:41:34.953Z,672.66155
2023-02-22T16:46:36.818Z,722.08675
2023-02-22T16:51:38.444Z,782.0979
2023-02-22T16:56:40.089Z,836.35495
2023-02-22T17:01:41.733Z,901.622
2023-02-22T17:06:43.346Z,989.5727
2023-02-22T17:11:44.989Z,1054.71045
2023-02-22T17:16:46.601Z,1106.93855
2023-02-22T17:21:48.281Z,1155.86555
2023-02-22T17:26:49.922Z,1206.3233
2023-02-22T17:31:51.548Z,1271.59035
2023-02-22T17:36:53.175Z,1311.94135
2023-02-22T17:41:54.931Z,1401.5711
2023-02-22T17:46:56.572Z,1540.7002
2023-02-22T17:51:58.209Z,1651.9259
2023-02-22T17:56:59.828Z,1750.50055
2023-02-22T18:02:01.534Z,1928.3776
2023-02-22T18:07:03.138Z,1862.8881
2023-02-22T18:12:05.022Z,1932.0286
2023-02-22T18:17:06.597Z,2030.5481
2023-02-22T18:22:08.205Z,2188.2478
2023-02-22T18:27:09.793Z,2315.44465
2023-02-22T18:32:11.417Z,2424.2535
2023-02-22T18:37:13.136Z,2411.4713
2023-02-22T18:42:14.867Z,2682.5568
2023-02-22T18:47:16.488Z,2630.2907
2023-02-22T18:52:18.139Z,2759.4062
2023-02-22T18:57:19.741Z,2937.04365
2023-02-22T19:02:21.372Z,2837.41745
2023-02-22T19:07:23.012Z,2619.29785
2023-02-22T19:12:24.640Z,2405.4396
2023-02-22T19:17:26.302Z,2399.9441
2023-02-22T19:22:28.020Z,2101.65685
2023-02-22T19:27:29.653Z,2130.9617
2023-02-22T19:32:31.368Z,2095.27525
2023-02-22T19:37:33.002Z,2093.19115
2023-02-22T19:42:34.587Z,2097.35935
2023-02-22T19:47:36.216Z,2054.03815
2023-02-22T19:52:38.045Z,2034.0281
2023-02-22T19:57:39.632Z,1949.56295
2023-02-22T20:02:41.288Z,1798.70505
2023-02-22T20:07:42.890Z,1768.921
2023-02-22T20:12:44.489Z,1759.8658
2023-02-22T20:17:46.127Z,1808.73765
2023-02-22T20:22:47.734Z,1749.02125
2023-02-22T20:27:49.311Z,1751.6587
2023-02-22T20:32:51.558Z,1767.9436
2023-02-22T20:37:53.360Z,1762.26365
2023-02-22T20:42:55.017Z,1742.9914
2023-02-22T20:47:56.622Z,1756.0855
2023-02-22T20:52:58.247Z,1744.5773
2023-02-22T20:57:59.942Z,1686.39165
2023-02-22T21:03:01.576Z,1627.17345
2023-02-22T21:08:03.208Z,1631.82085
2023-02-22T21:13:05.638Z,1585.1624
2023-02-22T21:18:09.967Z,1508.8112
2023-02-22T21:23:11.553Z,1458.22415
2023-02-22T21:28:13.291Z,1423.903
2023-02-22T21:33:14.985Z,1414.55305
2023-02-22T21:38:16.613Z,1438.583
2023-02-22T21:43:18.287Z,1435.6508
2023-02-22T21:48:19.986Z,1388.62345
2023-02-22T21:53:21.589Z,1316.1267
2023-02-22T21:58:23.345Z,1318.89345
2023-02-22T22:03:25.006Z,1280.71785
2023-02-22T22:08:26.758Z,1284.5723
2023-02-22T22:13:28.408Z,1257.9049
2023-02-22T22:18:30.131Z,1242.43195
2023-02-22T22:23:31.818Z,1227.51235
2023-02-22T22:28:33.436Z,1220.91015
2023-02-22T22:33:35.056Z,1233.39575
2023-02-22T22:38:36.769Z,1236.0332
2023-02-22T22:43:38.423Z,1196.6406
2023-02-22T22:48:40.072Z,1101.40505
2023-02-22T22:53:41.705Z,1083.2395
2023-02-22T22:58:43.386Z,1009.231
2023-02-22T23:03:45.086Z,930.02175
2023-02-22T23:08:46.801Z,906.17625
2023-02-22T23:13:48.426Z,870.2692
2023-02-22T23:18:50.202Z,822.6885
2023-02-22T23:23:51.843Z,836.9996
2023-02-22T23:28:53.487Z,783.6648
2023-02-22T23:33:55.089Z,734.05515
2023-02-22T23:38:56.753Z,724.15185
2023-02-22T23:43:58.440Z,678.76555
2023-02-22T23:49:00.108Z,602.2489
2023-02-22T23:54:01.819Z,544.93035
2023-02-22T23:59:03.449Z,502.84515
